createdAt,value
2023-02-27T16:29:33.772Z,57.30
2023-02-27T16:32:01.838Z,47.58
2023-02-27T16:34:44.762Z,47.10
2023-02-27T16:43:29.534Z,46.50
2023-02-27T16:45:58.449Z,45.55
2023-02-27T16:48:26.887Z,44.83
2023-02-27T16:50:54.824Z,43.95
2023-02-27T16:53:22.901Z,43.00
2023-02-27T16:55:50.921Z,42.72
2023-02-27T16:58:19.033Z,44.28
2023-02-27T17:00:48.995Z,41.60
2023-02-27T17:03:17.013Z,42.80
2023-02-27T17:05:44.968Z,41.90
2023-02-27T17:08:12.873Z,42.47
2023-02-27T17:10:40.876Z,45.45
2023-02-27T17:13:08.914Z,41.60
2023-02-27T17:15:36.915Z,41.90
2023-02-27T17:18:09.078Z,41.28
2023-02-27T17:20:37.376Z,42.40
2023-02-27T17:23:05.397Z,41.57
2023-02-27T17:25:33.362Z,43.17
2023-02-27T17:28:01.340Z,42.50
2023-02-27T17:30:29.608Z,41.50
2023-02-27T17:32:59.754Z,40.95
2023-02-27T17:35:30.995Z,41.33
2023-02-27T17:38:00.206Z,42.20
2023-02-27T17:40:28.377Z,42.17
2023-02-27T17:42:56.547Z,42.20
2023-02-27T17:45:27.056Z,42.17
2023-02-27T17:47:55.808Z,41.83
2023-02-27T17:50:23.958Z,41.75
2023-02-27T17:52:53.247Z,40.33
2023-02-27T17:55:21.476Z,40.70
2023-02-27T17:57:49.566Z,41.75
2023-02-27T18:00:18.080Z,41.33
2023-02-27T18:02:47.882Z,41.45
2023-02-27T18:05:16.136Z,40.97
2023-02-27T18:07:44.138Z,41.60
2023-02-27T18:10:15.763Z,40.90
2023-02-27T18:12:43.783Z,40.75
2023-02-27T18:15:12.225Z,40.42
2023-02-27T18:17:40.292Z,41.40
2023-02-27T18:20:10.156Z,41.35
2023-02-27T18:22:38.203Z,40.90
2023-02-27T18:25:07.773Z,40.20
2023-02-27T18:27:37.080Z,41.00
2023-02-27T18:30:05.564Z,39.97
2023-02-27T18:32:33.706Z,40.80
2023-02-27T18:35:02.004Z,40.15
2023-02-27T18:37:29.913Z,41.22
2023-02-27T18:39:57.884Z,40.50
2023-02-27T18:42:25.848Z,41.30
2023-02-27T18:44:55.213Z,40.10
2023-02-27T18:47:23.168Z,40.20
2023-02-27T18:49:51.852Z,42.67
2023-02-27T18:52:19.934Z,40.30
2023-02-27T18:54:47.991Z,40.90
2023-02-27T18:57:16.226Z,41.63
2023-02-27T18:59:46.459Z,39.92
2023-02-27T19:02:19.494Z,39.80
2023-02-27T19:04:48.702Z,41.28
2023-02-27T19:07:17.433Z,41.00
2023-02-27T19:09:45.587Z,40.78
2023-02-27T19:12:13.488Z,40.67
2023-02-27T19:14:41.838Z,41.15
2023-02-27T19:17:09.837Z,40.80
2023-02-27T19:19:39.291Z,40.40
2023-02-27T19:22:07.233Z,41.00
2023-02-27T19:24:35.314Z,41.00
2023-02-27T19:27:03.357Z,40.88
2023-02-27T19:29:31.304Z,42.20
2023-02-27T19:31:59.255Z,40.30
2023-02-27T19:34:27.443Z,40.50
2023-02-27T19:36:56.808Z,39.70
2023-02-27T19:39:24.747Z,40.80
2023-02-27T19:41:52.722Z,41.90
2023-02-27T19:44:21.466Z,40.40
2023-02-27T19:46:51.492Z,40.40
2023-02-27T19:49:20.130Z,39.60
2023-02-27T19:51:48.073Z,40.30
2023-02-27T19:54:17.807Z,39.40
2023-02-27T19:56:46.065Z,39.40
2023-02-27T19:59:14.167Z,40.72
2023-02-27T20:01:42.336Z,40.40
2023-02-27T20:04:11.547Z,40.30
2023-02-27T20:06:42.846Z,39.50
2023-02-27T20:09:13.177Z,39.70
2023-02-27T20:11:43.489Z,40.30
2023-02-27T20:14:11.675Z,41.97
2023-02-27T20:16:40.567Z,38.92
2023-02-27T20:19:11.637Z,40.45
2023-02-27T20:21:39.678Z,39.70
2023-02-27T20:24:10.345Z,40.50
2023-02-27T20:26:43.879Z,40.55
2023-02-27T20:29:13.858Z,40.05
2023-02-27T20:31:46.119Z,39.85
2023-02-27T20:34:16.477Z,41.60
2023-02-27T20:36:45.429Z,39.80
2023-02-27T20:39:13.483Z,39.90
2023-02-27T20:41:42.938Z,40.72
2023-02-27T20:44:11.576Z,39.88
2023-02-27T20:46:41.327Z,39.10
2023-02-27T20:49:11.678Z,40.53
2023-02-27T20:51:41.068Z,40.00
2023-02-27T20:54:13.054Z,38.60
2023-02-27T20:56:43.254Z,39.55
2023-02-27T20:59:14.017Z,40.67
2023-02-27T21:01:42.441Z,38.80
2023-02-27T21:04:10.546Z,39.42
2023-02-27T21:06:38.652Z,38.88
2023-02-27T21:09:07.813Z,40.28
2023-02-27T21:11:36.186Z,40.20
2023-02-27T21:14:09.271Z,38.60
2023-02-27T21:16:38.045Z,40.08
2023-02-27T21:19:06.786Z,40.97
2023-02-27T21:21:36.231Z,39.90
2023-02-27T21:24:05.614Z,39.60
2023-02-27T21:26:35.687Z,39.20
2023-02-27T21:29:08.681Z,39.58
2023-02-27T21:31:38.080Z,38.80
2023-02-27T21:34:09.210Z,38.90
2023-02-27T21:36:42.315Z,39.30
2023-02-27T21:39:13.676Z,39.60
2023-02-27T21:41:42.284Z,39.53
2023-02-27T21:44:15.596Z,39.03
2023-02-27T21:46:44.085Z,38.83
2023-02-27T21:49:17.274Z,40.08
2023-02-27T21:51:45.767Z,39.13
2023-02-27T21:54:15.249Z,39.70
2023-02-27T21:56:44.623Z,39.00
2023-02-27T21:59:15.124Z,39.10
2023-02-27T22:01:47.100Z,39.20
2023-02-27T22:04:15.846Z,39.03
2023-02-27T22:06:44.040Z,39.97
2023-02-27T22:09:12.468Z,39.80
2023-02-27T22:11:40.962Z,38.40
2023-02-27T22:14:10.246Z,38.70
2023-02-27T22:16:39.938Z,38.90
2023-02-27T22:19:08.473Z,39.47
2023-02-27T22:21:37.553Z,39.03
2023-02-27T22:24:06.512Z,39.00
2023-02-27T22:26:34.999Z,39.40
2023-02-27T22:29:03.515Z,40.78
2023-02-27T22:31:33.438Z,40.30
2023-02-27T22:34:05.419Z,39.15
2023-02-27T22:36:34.681Z,38.70
2023-02-27T22:39:02.607Z,40.00
2023-02-27T22:41:32.351Z,38.60
2023-02-27T22:44:01.402Z,38.80
2023-02-27T22:46:31.622Z,39.10
2023-02-27T22:49:01.373Z,41.22
2023-02-27T22:51:31.435Z,38.53
2023-02-27T22:54:03.185Z,40.90
2023-02-27T22:56:31.691Z,38.75
2023-02-27T22:59:00.177Z,39.70
2023-02-27T23:01:30.657Z,38.70
2023-02-27T23:04:01.286Z,38.80
2023-02-27T23:06:32.377Z,39.60
2023-02-27T23:09:00.650Z,40.95
2023-02-27T23:11:29.197Z,39.22
2023-02-27T23:13:57.346Z,38.72
2023-02-27T23:16:25.581Z,39.80
2023-02-27T23:18:55.593Z,40.10
2023-02-27T23:21:25.239Z,39.17
2023-02-27T23:23:54.651Z,39.30
2023-02-27T23:26:22.819Z,39.85
2023-02-27T23:28:50.664Z,41.40
2023-02-27T23:31:18.530Z,39.72
2023-02-27T23:33:46.557Z,39.08
2023-02-27T23:36:15.271Z,40.00
2023-02-27T23:38:46.336Z,40.35
2023-02-27T23:41:17.496Z,40.00
2023-02-27T23:43:45.655Z,39.50
2023-02-27T23:46:15.327Z,39.67
2023-02-27T23:48:43.797Z,40.35
2023-02-27T23:51:12.511Z,39.58
2023-02-27T23:53:41.655Z,39.78
2023-02-27T23:56:22.399Z,39.63
2023-02-27T23:58:55.651Z,40.30
